sensor_id;sensor_type;location;lat;lon;timestamp;temperature;humidity
18741;DHT22;9499;52.472;13.448;2022-11-12T00:00:52;8.80;13.20
18741;DHT22;9499;52.472;13.448;2022-11-12T00:03:18;8.90;11.30
18741;DHT22;9499;52.472;13.448;2022-11-12T00:05:45;8.80;10.70
18741;DHT22;9499;52.472;13.448;2022-11-12T00:08:14;8.80;8.60
18741;DHT22;9499;52.472;13.448;2022-11-12T00:10:40;8.80;9.50
18741;DHT22;9499;52.472;13.448;2022-11-12T00:13:07;8.80;12.00
18741;DHT22;9499;52.472;13.448;2022-11-12T00:15:35;8.80;10.00
18741;DHT22;9499;52.472;13.448;2022-11-12T00:18:01;8.70;8.30
18741;DHT22;9499;52.472;13.448;2022-11-12T00:20:28;8.80;4.50
18741;DHT22;9499;52.472;13.448;2022-11-12T00:22:54;8.80;3.60
18741;DHT22;9499;52.472;13.448;2022-11-12T00:25:21;8.80;1.00
18741;DHT22;9499;52.472;13.448;2022-11-12T00:27:47;8.80;1.00
18741;DHT22;9499;52.472;13.448;2022-11-12T00:30:14;8.80;1.00
18741;DHT22;9499;52.472;13.448;2022-11-12T00:32:42;8.70;1.00
18741;DHT22;9499;52.472;13.448;2022-11-12T00:35:09;8.70;1.00
18741;DHT22;9499;52.472;13.448;2022-11-12T00:37:36;8.70;1.00
18741;DHT22;9499;52.472;13.448;2022-11-12T00:40:03;8.70;1.00
18741;DHT22;9499;52.472;13.448;2022-11-12T00:42:30;8.70;1.00
18741;DHT22;9499;52.472;13.448;2022-11-12T00:45:17;8.70;1.00
18741;DHT22;9499;52.472;13.448;2022-11-12T00:47:59;8.60;1.00
18741;DHT22;9499;52.472;13.448;2022-11-12T00:50:26;8.60;1.00
18741;DHT22;9499;52.472;13.448;2022-11-12T00:52:53;8.60;1.00
18741;DHT22;9499;52.472;13.448;2022-11-12T00:55:19;8.50;1.00
18741;DHT22;9499;52.472;13.448;2022-11-12T00:57:46;8.50;1.00
18741;DHT22;9499;52.472;13.448;2022-11-12T01:00:16;8.50;1.00
18741;DHT22;9499;52.472;13.448;2022-11-12T01:02:44;8.50;1.00
18741;DHT22;9499;52.472;13.448;2022-11-12T01:05:12;8.40;1.00
18741;DHT22;9499;52.472;13.448;2022-11-12T01:07:39;8.40;1.00
18741;DHT22;9499;52.472;13.448;2022-11-12T01:10:06;8.30;1.00
18741;DHT22;9499;52.472;13.448;2022-11-12T01:12:33;8.30;1.00
18741;DHT22;9499;52.472;13.448;2022-11-12T01:15:00;8.30;1.00
18741;DHT22;9499;52.472;13.448;2022-11-12T01:17:27;8.30;3.50
18741;DHT22;9499;52.472;13.448;2022-11-12T01:19:53;8.30;1.00
18741;DHT22;9499;52.472;13.448;2022-11-12T01:22:21;8.30;1.00
18741;DHT22;9499;52.472;13.448;2022-11-12T01:24:48;8.20;2.50
18741;DHT22;9499;52.472;13.448;2022-11-12T01:27:14;8.20;1.30
18741;DHT22;9499;52.472;13.448;2022-11-12T01:29:41;8.20;1.00
18741;DHT22;9499;52.472;13.448;2022-11-12T01:32:07;8.30;1.00
18741;DHT22;9499;52.472;13.448;2022-11-12T01:34:34;8.30;1.00
18741;DHT22;9499;52.472;13.448;2022-11-12T01:37:00;8.20;1.00
18741;DHT22;9499;52.472;13.448;2022-11-12T01:39:28;8.20;1.00
18741;DHT22;9499;52.472;13.448;2022-11-12T01:41:55;8.20;1.00
18741;DHT22;9499;52.472;13.448;2022-11-12T01:44:23;8.20;1.00
18741;DHT22;9499;52.472;13.448;2022-11-12T01:46:58;8.10;1.70
18741;DHT22;9499;52.472;13.448;2022-11-12T01:49:29;8.10;3.90
18741;DHT22;9499;52.472;13.448;2022-11-12T01:52:02;8.10;5.00
18741;DHT22;9499;52.472;13.448;2022-11-12T01:54:31;8.00;5.70
18741;DHT22;9499;52.472;13.448;2022-11-12T01:56:58;8.00;4.50
18741;DHT22;9499;52.472;13.448;2022-11-12T01:59:28;8.00;4.40
18741;DHT22;9499;52.472;13.448;2022-11-12T02:01:56;8.00;1.60
18741;DHT22;9499;52.472;13.448;2022-11-12T02:04:24;8.00;3.00
18741;DHT22;9499;52.472;13.448;2022-11-12T02:06:53;8.00;1.00
18741;DHT22;9499;52.472;13.448;2022-11-12T02:09:21;8.00;1.00
18741;DHT22;9499;52.472;13.448;2022-11-12T02:11:49;8.00;1.00
18741;DHT22;9499;52.472;13.448;2022-11-12T02:14:15;8.00;1.00
18741;DHT22;9499;52.472;13.448;2022-11-12T02:16:43;8.00;1.00
18741;DHT22;9499;52.472;13.448;2022-11-12T02:19:13;8.00;1.00
18741;DHT22;9499;52.472;13.448;2022-11-12T02:21:41;8.00;1.00
18741;DHT22;9499;52.472;13.448;2022-11-12T02:24:33;8.10;1.00
18741;DHT22;9499;52.472;13.448;2022-11-12T02:27:01;8.20;1.00
18741;DHT22;9499;52.472;13.448;2022-11-12T02:29:28;8.10;1.00
18741;DHT22;9499;52.472;13.448;2022-11-12T02:31:55;8.10;1.00
18741;DHT22;9499;52.472;13.448;2022-11-12T02:34:22;8.20;1.00
18741;DHT22;9499;52.472;13.448;2022-11-12T02:36:50;8.10;1.00
18741;DHT22;9499;52.472;13.448;2022-11-12T02:39:17;8.10;1.00
18741;DHT22;9499;52.472;13.448;2022-11-12T02:41:44;8.10;1.00
18741;DHT22;9499;52.472;13.448;2022-11-12T02:44:10;8.10;1.00
18741;DHT22;9499;52.472;13.448;2022-11-12T02:46:37;8.10;1.00
18741;DHT22;9499;52.472;13.448;2022-11-12T02:49:03;8.10;1.00
18741;DHT22;9499;52.472;13.448;2022-11-12T02:51:30;8.10;1.00
18741;DHT22;9499;52.472;13.448;2022-11-12T02:53:58;8.10;1.00
18741;DHT22;9499;52.472;13.448;2022-11-12T02:56:24;8.10;1.00
18741;DHT22;9499;52.472;13.448;2022-11-12T02:58:51;8.10;1.00
18741;DHT22;9499;52.472;13.448;2022-11-12T03:01:17;8.10;1.00
18741;DHT22;9499;52.472;13.448;2022-11-12T03:03:44;8.10;1.00
18741;DHT22;9499;52.472;13.448;2022-11-12T03:06:10;8.00;1.00
18741;DHT22;9499;52.472;13.448;2022-11-12T03:08:37;8.10;1.00
18741;DHT22;9499;52.472;13.448;2022-11-12T03:11:09;8.10;1.00
18741;DHT22;9499;52.472;13.448;2022-11-12T03:13:37;8.20;1.00
18741;DHT22;9499;52.472;13.448;2022-11-12T03:16:04;8.20;1.00
18741;DHT22;9499;52.472;13.448;2022-11-12T03:18:31;8.30;1.00
18741;DHT22;9499;52.472;13.448;2022-11-12T03:20:57;8.30;1.00
18741;DHT22;9499;52.472;13.448;2022-11-12T03:23:25;8.30;1.00
18741;DHT22;9499;52.472;13.448;2022-11-12T03:25:52;8.40;1.00
18741;DHT22;9499;52.472;13.448;2022-11-12T03:28:20;8.30;1.00
18741;DHT22;9499;52.472;13.448;2022-11-12T03:30:46;8.30;1.00
18741;DHT22;9499;52.472;13.448;2022-11-12T03:33:14;8.30;1.00
18741;DHT22;9499;52.472;13.448;2022-11-12T03:35:41;8.30;1.00
18741;DHT22;9499;52.472;13.448;2022-11-12T03:38:10;8.20;1.00
18741;DHT22;9499;52.472;13.448;2022-11-12T03:40:37;8.20;1.00
18741;DHT22;9499;52.472;13.448;2022-11-12T03:43:03;8.10;1.00
18741;DHT22;9499;52.472;13.448;2022-11-12T03:45:31;8.00;1.00
18741;DHT22;9499;52.472;13.448;2022-11-12T03:47:58;7.90;1.00
18741;DHT22;9499;52.472;13.448;2022-11-12T03:50:27;7.80;1.00
18741;DHT22;9499;52.472;13.448;2022-11-12T03:52:55;7.80;1.00
18741;DHT22;9499;52.472;13.448;2022-11-12T03:55:24;7.70;1.00
18741;DHT22;9499;52.472;13.448;2022-11-12T03:57:52;7.60;1.00
18741;DHT22;9499;52.472;13.448;2022-11-12T04:00:20;7.60;1.00
18741;DHT22;9499;52.472;13.448;2022-11-12T04:02:48;7.60;1.00
18741;DHT22;9499;52.472;13.448;2022-11-12T04:05:15;7.50;3.80
18741;DHT22;9499;52.472;13.448;2022-11-12T04:08:01;7.50;8.30
18741;DHT22;9499;52.472;13.448;2022-11-12T04:10:45;7.50;6.70
18741;DHT22;9499;52.472;13.448;2022-11-12T04:13:12;7.50;10.20
18741;DHT22;9499;52.472;13.448;2022-11-12T04:16:00;7.50;11.10
18741;DHT22;9499;52.472;13.448;2022-11-12T04:18:46;7.40;13.90
18741;DHT22;9499;52.472;13.448;2022-11-12T04:21:35;7.40;13.30
18741;DHT22;9499;52.472;13.448;2022-11-12T04:24:24;7.40;15.30
18741;DHT22;9499;52.472;13.448;2022-11-12T04:27:11;7.30;22.00
18741;DHT22;9499;52.472;13.448;2022-11-12T04:29:38;7.20;24.90
18741;DHT22;9499;52.472;13.448;2022-11-12T04:32:22;7.20;28.80
18741;DHT22;9499;52.472;13.448;2022-11-12T04:34:51;7.20;28.70
18741;DHT22;9499;52.472;13.448;2022-11-12T04:37:18;7.20;26.70
18741;DHT22;9499;52.472;13.448;2022-11-12T04:39:45;7.20;29.20
18741;DHT22;9499;52.472;13.448;2022-11-12T04:42:11;7.20;33.00
18741;DHT22;9499;52.472;13.448;2022-11-12T04:44:56;7.10;33.90
18741;DHT22;9499;52.472;13.448;2022-11-12T04:47:27;7.10;37.60
18741;DHT22;9499;52.472;13.448;2022-11-12T04:49:56;7.00;45.70
18741;DHT22;9499;52.472;13.448;2022-11-12T04:52:23;7.00;47.30
18741;DHT22;9499;52.472;13.448;2022-11-12T04:54:50;7.00;46.10
18741;DHT22;9499;52.472;13.448;2022-11-12T04:57:17;7.00;51.40
18741;DHT22;9499;52.472;13.448;2022-11-12T04:59:43;7.00;55.30
18741;DHT22;9499;52.472;13.448;2022-11-12T05:02:10;6.90;52.40
18741;DHT22;9499;52.472;13.448;2022-11-12T05:04:37;6.90;53.20
18741;DHT22;9499;52.472;13.448;2022-11-12T05:07:05;6.90;58.70
18741;DHT22;9499;52.472;13.448;2022-11-12T05:09:32;6.80;63.00
18741;DHT22;9499;52.472;13.448;2022-11-12T05:11:58;6.80;62.70
18741;DHT22;9499;52.472;13.448;2022-11-12T05:14:25;6.80;66.30
18741;DHT22;9499;52.472;13.448;2022-11-12T05:16:52;6.80;65.50
18741;DHT22;9499;52.472;13.448;2022-11-12T05:19:18;6.80;69.10
18741;DHT22;9499;52.472;13.448;2022-11-12T05:21:45;6.70;69.30
18741;DHT22;9499;52.472;13.448;2022-11-12T05:24:32;6.80;72.10
18741;DHT22;9499;52.472;13.448;2022-11-12T05:26:58;6.80;74.60
18741;DHT22;9499;52.472;13.448;2022-11-12T05:29:25;6.70;70.90
18741;DHT22;9499;52.472;13.448;2022-11-12T05:31:51;6.70;75.00
18741;DHT22;9499;52.472;13.448;2022-11-12T05:34:18;6.70;73.50
18741;DHT22;9499;52.472;13.448;2022-11-12T05:36:44;6.60;80.10
18741;DHT22;9499;52.472;13.448;2022-11-12T05:39:11;6.60;80.50
18741;DHT22;9499;52.472;13.448;2022-11-12T05:41:39;6.60;89.00
18741;DHT22;9499;52.472;13.448;2022-11-12T05:44:06;6.60;91.60
18741;DHT22;9499;52.472;13.448;2022-11-12T05:46:32;6.60;90.00
18741;DHT22;9499;52.472;13.448;2022-11-12T05:48:58;6.60;88.00
18741;DHT22;9499;52.472;13.448;2022-11-12T05:51:25;6.50;88.60
18741;DHT22;9499;52.472;13.448;2022-11-12T05:53:52;6.60;90.10
18741;DHT22;9499;52.472;13.448;2022-11-12T05:56:18;6.50;89.90
18741;DHT22;9499;52.472;13.448;2022-11-12T05:58:46;6.50;91.60
18741;DHT22;9499;52.472;13.448;2022-11-12T06:01:12;6.50;92.70
18741;DHT22;9499;52.472;13.448;2022-11-12T06:03:40;6.50;90.20
18741;DHT22;9499;52.472;13.448;2022-11-12T06:06:06;6.50;89.90
18741;DHT22;9499;52.472;13.448;2022-11-12T06:08:33;6.50;85.80
18741;DHT22;9499;52.472;13.448;2022-11-12T06:11:00;6.50;85.50
18741;DHT22;9499;52.472;13.448;2022-11-12T06:13:26;6.50;87.70
18741;DHT22;9499;52.472;13.448;2022-11-12T06:15:54;6.50;89.00
18741;DHT22;9499;52.472;13.448;2022-11-12T06:18:22;6.40;89.00
18741;DHT22;9499;52.472;13.448;2022-11-12T06:20:48;6.40;91.60
18741;DHT22;9499;52.472;13.448;2022-11-12T06:23:35;6.30;96.20
18741;DHT22;9499;52.472;13.448;2022-11-12T06:26:02;6.40;98.10
18741;DHT22;9499;52.472;13.448;2022-11-12T06:28:29;6.40;99.00
18741;DHT22;9499;52.472;13.448;2022-11-12T06:30:57;6.40;99.90
18741;DHT22;9499;52.472;13.448;2022-11-12T06:33:23;6.30;99.90
18741;DHT22;9499;52.472;13.448;2022-11-12T06:35:56;6.30;99.90
18741;DHT22;9499;52.472;13.448;2022-11-12T06:38:27;6.30;99.90
18741;DHT22;9499;52.472;13.448;2022-11-12T06:40:54;6.40;99.90
18741;DHT22;9499;52.472;13.448;2022-11-12T06:43:20;6.30;99.90
18741;DHT22;9499;52.472;13.448;2022-11-12T06:45:47;6.40;99.90
18741;DHT22;9499;52.472;13.448;2022-11-12T06:48:15;6.40;99.90
18741;DHT22;9499;52.472;13.448;2022-11-12T06:50:41;6.40;99.90
18741;DHT22;9499;52.472;13.448;2022-11-12T06:53:08;6.40;99.90
18741;DHT22;9499;52.472;13.448;2022-11-12T06:55:34;6.40;99.90
18741;DHT22;9499;52.472;13.448;2022-11-12T06:58:01;6.40;99.90
18741;DHT22;9499;52.472;13.448;2022-11-12T07:00:27;6.40;99.90
18741;DHT22;9499;52.472;13.448;2022-11-12T07:02:54;6.40;99.90
18741;DHT22;9499;52.472;13.448;2022-11-12T07:05:22;6.50;99.90
18741;DHT22;9499;52.472;13.448;2022-11-12T07:07:48;6.50;99.90
18741;DHT22;9499;52.472;13.448;2022-11-12T07:10:15;6.50;99.90
18741;DHT22;9499;52.472;13.448;2022-11-12T07:12:41;6.50;99.90
18741;DHT22;9499;52.472;13.448;2022-11-12T07:15:09;6.50;99.90
18741;DHT22;9499;52.472;13.448;2022-11-12T07:17:36;6.50;99.90
18741;DHT22;9499;52.472;13.448;2022-11-12T07:20:03;6.60;99.90
18741;DHT22;9499;52.472;13.448;2022-11-12T07:22:32;6.60;99.90
18741;DHT22;9499;52.472;13.448;2022-11-12T07:24:59;6.60;99.90
18741;DHT22;9499;52.472;13.448;2022-11-12T07:27:28;6.70;99.90
18741;DHT22;9499;52.472;13.448;2022-11-12T07:29:54;6.70;99.90
18741;DHT22;9499;52.472;13.448;2022-11-12T07:32:21;6.70;99.90
18741;DHT22;9499;52.472;13.448;2022-11-12T07:34:47;6.80;99.90
18741;DHT22;9499;52.472;13.448;2022-11-12T07:37:14;6.80;99.90
18741;DHT22;9499;52.472;13.448;2022-11-12T07:39:42;6.80;99.90
18741;DHT22;9499;52.472;13.448;2022-11-12T07:42:08;6.90;99.90
18741;DHT22;9499;52.472;13.448;2022-11-12T07:44:35;7.00;97.70
18741;DHT22;9499;52.472;13.448;2022-11-12T07:47:01;7.00;95.50
18741;DHT22;9499;52.472;13.448;2022-11-12T07:49:28;7.10;92.00
18741;DHT22;9499;52.472;13.448;2022-11-12T07:51:55;7.20;81.40
18741;DHT22;9499;52.472;13.448;2022-11-12T07:54:21;7.30;74.00
18741;DHT22;9499;52.472;13.448;2022-11-12T07:56:49;7.30;62.80
18741;DHT22;9499;52.472;13.448;2022-11-12T07:59:15;7.40;57.20
18741;DHT22;9499;52.472;13.448;2022-11-12T08:01:42;7.50;58.00
18741;DHT22;9499;52.472;13.448;2022-11-12T08:04:09;7.50;54.50
18741;DHT22;9499;52.472;13.448;2022-11-12T08:06:36;7.60;57.30
18741;DHT22;9499;52.472;13.448;2022-11-12T08:09:05;7.70;47.00
18741;DHT22;9499;52.472;13.448;2022-11-12T08:11:32;7.80;40.80
18741;DHT22;9499;52.472;13.448;2022-11-12T08:14:00;7.80;47.20
18741;DHT22;9499;52.472;13.448;2022-11-12T08:16:27;7.80;40.20
18741;DHT22;9499;52.472;13.448;2022-11-12T08:18:54;7.90;27.40
18741;DHT22;9499;52.472;13.448;2022-11-12T08:21:20;7.90;42.30
18741;DHT22;9499;52.472;13.448;2022-11-12T08:23:47;8.00;35.80
18741;DHT22;9499;52.472;13.448;2022-11-12T08:26:16;8.00;19.30
18741;DHT22;9499;52.472;13.448;2022-11-12T08:28:43;8.10;16.70
18741;DHT22;9499;52.472;13.448;2022-11-12T08:31:13;8.20;21.70
18741;DHT22;9499;52.472;13.448;2022-11-12T08:33:42;8.20;28.00
18741;DHT22;9499;52.472;13.448;2022-11-12T08:36:11;8.30;29.20
18741;DHT22;9499;52.472;13.448;2022-11-12T08:38:39;8.40;29.80
18741;DHT22;9499;52.472;13.448;2022-11-12T08:41:07;8.50;33.00
18741;DHT22;9499;52.472;13.448;2022-11-12T08:43:34;8.60;27.00
18741;DHT22;9499;52.472;13.448;2022-11-12T08:46:02;8.70;1.00
18741;DHT22;9499;52.472;13.448;2022-11-12T08:48:31;8.70;1.00
18741;DHT22;9499;52.472;13.448;2022-11-12T08:50:59;8.80;2.90
18741;DHT22;9499;52.472;13.448;2022-11-12T08:53:26;8.90;1.00
18741;DHT22;9499;52.472;13.448;2022-11-12T08:55:54;9.00;1.00
18741;DHT22;9499;52.472;13.448;2022-11-12T08:58:21;9.10;1.00
18741;DHT22;9499;52.472;13.448;2022-11-12T09:00:48;9.20;1.00
18741;DHT22;9499;52.472;13.448;2022-11-12T09:03:17;9.30;1.00
18741;DHT22;9499;52.472;13.448;2022-11-12T09:05:46;9.40;1.00
18741;DHT22;9499;52.472;13.448;2022-11-12T09:08:15;9.50;1.00
18741;DHT22;9499;52.472;13.448;2022-11-12T09:10:43;9.70;1.00
18741;DHT22;9499;52.472;13.448;2022-11-12T09:13:10;9.90;1.00
18741;DHT22;9499;52.472;13.448;2022-11-12T09:15:37;10.10;1.00
18741;DHT22;9499;52.472;13.448;2022-11-12T09:18:06;10.20;1.00
18741;DHT22;9499;52.472;13.448;2022-11-12T09:20:33;10.60;1.00
18741;DHT22;9499;52.472;13.448;2022-11-12T09:23:03;10.90;1.00
18741;DHT22;9499;52.472;13.448;2022-11-12T09:25:30;11.10;1.00
18741;DHT22;9499;52.472;13.448;2022-11-12T09:27:56;11.30;1.00
18741;DHT22;9499;52.472;13.448;2022-11-12T09:30:25;11.60;1.00
18741;DHT22;9499;52.472;13.448;2022-11-12T09:32:56;11.70;1.00
18741;DHT22;9499;52.472;13.448;2022-11-12T09:35:23;11.70;1.00
18741;DHT22;9499;52.472;13.448;2022-11-12T09:37:49;11.60;1.00
18741;DHT22;9499;52.472;13.448;2022-11-12T09:40:18;11.60;1.00
18741;DHT22;9499;52.472;13.448;2022-11-12T09:42:48;11.70;1.00
18741;DHT22;9499;52.472;13.448;2022-11-12T09:45:20;12.00;1.00
18741;DHT22;9499;52.472;13.448;2022-11-12T09:47:51;12.30;1.00
18741;DHT22;9499;52.472;13.448;2022-11-12T09:50:22;12.60;1.00
18741;DHT22;9499;52.472;13.448;2022-11-12T09:52:54;12.90;1.00
18741;DHT22;9499;52.472;13.448;2022-11-12T09:55:28;13.10;1.00
18741;DHT22;9499;52.472;13.448;2022-11-12T09:57:55;13.30;1.00
18741;DHT22;9499;52.472;13.448;2022-11-12T10:00:22;13.60;1.00
18741;DHT22;9499;52.472;13.448;2022-11-12T10:02:52;13.80;1.00
18741;DHT22;9499;52.472;13.448;2022-11-12T10:05:25;13.80;1.00
18741;DHT22;9499;52.472;13.448;2022-11-12T10:08:03;13.70;1.00
18741;DHT22;9499;52.472;13.448;2022-11-12T10:10:40;13.60;1.00
18741;DHT22;9499;52.472;13.448;2022-11-12T10:13:19;13.40;1.00
18741;DHT22;9499;52.472;13.448;2022-11-12T10:16:13;13.40;1.00
18741;DHT22;9499;52.472;13.448;2022-11-12T10:19:20;13.40;1.00
18741;DHT22;9499;52.472;13.448;2022-11-12T10:21:53;13.20;1.00
18741;DHT22;9499;52.472;13.448;2022-11-12T10:24:22;13.10;1.00
18741;DHT22;9499;52.472;13.448;2022-11-12T10:26:51;13.20;1.00
18741;DHT22;9499;52.472;13.448;2022-11-12T10:29:27;13.20;1.00
18741;DHT22;9499;52.472;13.448;2022-11-12T10:31:55;13.40;1.00
18741;DHT22;9499;52.472;13.448;2022-11-12T10:34:23;13.50;1.00
18741;DHT22;9499;52.472;13.448;2022-11-12T10:36:53;13.70;1.00
18741;DHT22;9499;52.472;13.448;2022-11-12T10:39:35;13.80;1.00
18741;DHT22;9499;52.472;13.448;2022-11-12T10:42:08;14.10;1.00
18741;DHT22;9499;52.472;13.448;2022-11-12T10:44:35;14.30;1.00
18741;DHT22;9499;52.472;13.448;2022-11-12T10:47:24;14.50;1.00
18741;DHT22;9499;52.472;13.448;2022-11-12T10:50:14;14.80;1.00
18741;DHT22;9499;52.472;13.448;2022-11-12T10:52:53;15.20;1.00
18741;DHT22;9499;52.472;13.448;2022-11-12T10:55:21;15.30;1.00
18741;DHT22;9499;52.472;13.448;2022-11-12T10:58:12;15.20;1.00
18741;DHT22;9499;52.472;13.448;2022-11-12T11:00:52;15.20;1.00
18741;DHT22;9499;52.472;13.448;2022-11-12T11:03:24;15.20;1.00
18741;DHT22;9499;52.472;13.448;2022-11-12T11:05:54;15.30;1.00
18741;DHT22;9499;52.472;13.448;2022-11-12T11:08:35;15.50;1.00
18741;DHT22;9499;52.472;13.448;2022-11-12T11:11:23;15.70;1.00
18741;DHT22;9499;52.472;13.448;2022-11-12T11:13:56;15.80;1.00
18741;DHT22;9499;52.472;13.448;2022-11-12T11:16:26;16.10;1.00
18741;DHT22;9499;52.472;13.448;2022-11-12T11:18:58;16.30;1.00
18741;DHT22;9499;52.472;13.448;2022-11-12T11:21:55;16.40;1.00
18741;DHT22;9499;52.472;13.448;2022-11-12T11:24:34;16.50;1.00
18741;DHT22;9499;52.472;13.448;2022-11-12T11:27:06;16.50;1.00
18741;DHT22;9499;52.472;13.448;2022-11-12T11:29:49;16.60;1.00
18741;DHT22;9499;52.472;13.448;2022-11-12T11:32:32;16.80;1.00
18741;DHT22;9499;52.472;13.448;2022-11-12T11:35:11;17.10;1.00
18741;DHT22;9499;52.472;13.448;2022-11-12T11:37:47;17.10;1.00
18741;DHT22;9499;52.472;13.448;2022-11-12T11:40:24;17.10;1.00
18741;DHT22;9499;52.472;13.448;2022-11-12T11:43:23;17.10;1.00
18741;DHT22;9499;52.472;13.448;2022-11-12T11:46:06;17.40;1.00
18741;DHT22;9499;52.472;13.448;2022-11-12T11:48:42;17.50;1.00
18741;DHT22;9499;52.472;13.448;2022-11-12T11:51:23;17.50;1.00
18741;DHT22;9499;52.472;13.448;2022-11-12T11:54:01;17.60;1.00
18741;DHT22;9499;52.472;13.448;2022-11-12T11:56:35;17.70;1.00
18741;DHT22;9499;52.472;13.448;2022-11-12T11:59:12;17.70;1.00
18741;DHT22;9499;52.472;13.448;2022-11-12T12:01:57;17.70;1.00
18741;DHT22;9499;52.472;13.448;2022-11-12T12:04:41;17.70;1.00
18741;DHT22;9499;52.472;13.448;2022-11-12T12:07:22;17.70;1.00
18741;DHT22;9499;52.472;13.448;2022-11-12T12:09:56;17.70;1.00
18741;DHT22;9499;52.472;13.448;2022-11-12T12:12:37;17.80;1.00
18741;DHT22;9499;52.472;13.448;2022-11-12T12:15:27;17.90;1.00
18741;DHT22;9499;52.472;13.448;2022-11-12T12:18:03;18.00;1.00
18741;DHT22;9499;52.472;13.448;2022-11-12T12:20:37;18.10;1.00
18741;DHT22;9499;52.472;13.448;2022-11-12T12:23:12;18.10;1.00
18741;DHT22;9499;52.472;13.448;2022-11-12T12:25:43;18.00;1.00
18741;DHT22;9499;52.472;13.448;2022-11-12T12:28:16;17.90;1.00
18741;DHT22;9499;52.472;13.448;2022-11-12T12:30:52;17.90;1.00
18741;DHT22;9499;52.472;13.448;2022-11-12T12:33:27;18.00;1.00
18741;DHT22;9499;52.472;13.448;2022-11-12T12:35:57;18.10;1.00
18741;DHT22;9499;52.472;13.448;2022-11-12T12:38:34;18.20;1.00
18741;DHT22;9499;52.472;13.448;2022-11-12T12:41:20;18.20;1.00
18741;DHT22;9499;52.472;13.448;2022-11-12T12:43:54;18.10;1.00
18741;DHT22;9499;52.472;13.448;2022-11-12T12:46:24;18.10;1.00
18741;DHT22;9499;52.472;13.448;2022-11-12T12:48:54;18.10;1.00
18741;DHT22;9499;52.472;13.448;2022-11-12T12:51:23;18.10;1.00
18741;DHT22;9499;52.472;13.448;2022-11-12T12:53:53;18.10;1.00
18741;DHT22;9499;52.472;13.448;2022-11-12T12:56:46;18.10;1.00
18741;DHT22;9499;52.472;13.448;2022-11-12T12:59:21;18.20;1.00
18741;DHT22;9499;52.472;13.448;2022-11-12T13:01:57;18.20;1.00
18741;DHT22;9499;52.472;13.448;2022-11-12T13:04:51;18.30;1.00
18741;DHT22;9499;52.472;13.448;2022-11-12T13:07:21;18.30;1.00
18741;DHT22;9499;52.472;13.448;2022-11-12T13:09:49;18.20;1.00
18741;DHT22;9499;52.472;13.448;2022-11-12T13:12:16;18.00;1.00
18741;DHT22;9499;52.472;13.448;2022-11-12T13:15:10;17.60;1.00
18741;DHT22;9499;52.472;13.448;2022-11-12T13:17:45;17.40;1.00
18741;DHT22;9499;52.472;13.448;2022-11-12T13:20:31;17.10;1.00
18741;DHT22;9499;52.472;13.448;2022-11-12T13:22:59;16.90;1.00
18741;DHT22;9499;52.472;13.448;2022-11-12T13:25:28;16.70;1.00
18741;DHT22;9499;52.472;13.448;2022-11-12T13:28:11;16.60;1.00
18741;DHT22;9499;52.472;13.448;2022-11-12T13:30:59;16.40;1.00
18741;DHT22;9499;52.472;13.448;2022-11-12T13:33:31;16.20;1.00
18741;DHT22;9499;52.472;13.448;2022-11-12T13:36:33;16.10;1.00
18741;DHT22;9499;52.472;13.448;2022-11-12T13:39:11;15.90;1.00
18741;DHT22;9499;52.472;13.448;2022-11-12T13:41:39;15.70;1.00
18741;DHT22;9499;52.472;13.448;2022-11-12T13:44:23;15.70;1.00
18741;DHT22;9499;52.472;13.448;2022-11-12T13:46:51;15.60;1.00
18741;DHT22;9499;52.472;13.448;2022-11-12T13:49:18;15.50;1.00
18741;DHT22;9499;52.472;13.448;2022-11-12T13:51:47;15.40;1.00
18741;DHT22;9499;52.472;13.448;2022-11-12T13:54:30;15.30;1.00
18741;DHT22;9499;52.472;13.448;2022-11-12T13:57:22;15.20;1.00
18741;DHT22;9499;52.472;13.448;2022-11-12T14:00:07;15.10;1.00
18741;DHT22;9499;52.472;13.448;2022-11-12T14:02:35;15.10;1.00
18741;DHT22;9499;52.472;13.448;2022-11-12T14:05:12;15.00;1.00
18741;DHT22;9499;52.472;13.448;2022-11-12T14:07:48;14.90;1.00
18741;DHT22;9499;52.472;13.448;2022-11-12T14:10:25;14.80;1.00
18741;DHT22;9499;52.472;13.448;2022-11-12T14:13:18;14.70;1.00
18741;DHT22;9499;52.472;13.448;2022-11-12T14:16:02;14.70;1.00
18741;DHT22;9499;52.472;13.448;2022-11-12T14:18:38;14.70;1.00
18741;DHT22;9499;52.472;13.448;2022-11-12T14:21:14;14.70;1.00
18741;DHT22;9499;52.472;13.448;2022-11-12T14:23:44;14.60;1.00
18741;DHT22;9499;52.472;13.448;2022-11-12T14:26:12;14.50;1.00
18741;DHT22;9499;52.472;13.448;2022-11-12T14:28:39;14.40;1.00
18741;DHT22;9499;52.472;13.448;2022-11-12T14:31:11;14.40;1.00
18741;DHT22;9499;52.472;13.448;2022-11-12T14:33:38;14.30;1.00
18741;DHT22;9499;52.472;13.448;2022-11-12T14:36:10;14.30;1.00
18741;DHT22;9499;52.472;13.448;2022-11-12T14:38:40;14.20;1.00
18741;DHT22;9499;52.472;13.448;2022-11-12T14:41:14;14.20;1.00
18741;DHT22;9499;52.472;13.448;2022-11-12T14:43:43;14.10;1.00
18741;DHT22;9499;52.472;13.448;2022-11-12T14:46:21;14.10;1.00
18741;DHT22;9499;52.472;13.448;2022-11-12T14:48:51;14.10;1.00
18741;DHT22;9499;52.472;13.448;2022-11-12T14:51:21;14.00;1.00
18741;DHT22;9499;52.472;13.448;2022-11-12T14:53:52;13.90;1.00
18741;DHT22;9499;52.472;13.448;2022-11-12T14:56:28;13.80;1.00
18741;DHT22;9499;52.472;13.448;2022-11-12T14:58:57;13.80;1.00
18741;DHT22;9499;52.472;13.448;2022-11-12T15:01:26;13.70;1.00
18741;DHT22;9499;52.472;13.448;2022-11-12T15:04:03;13.60;1.00
18741;DHT22;9499;52.472;13.448;2022-11-12T15:06:33;13.60;1.00
18741;DHT22;9499;52.472;13.448;2022-11-12T15:08:59;13.50;1.00
18741;DHT22;9499;52.472;13.448;2022-11-12T15:11:30;13.40;1.00
18741;DHT22;9499;52.472;13.448;2022-11-12T15:14:02;13.40;1.00
18741;DHT22;9499;52.472;13.448;2022-11-12T15:16:31;13.30;1.00
18741;DHT22;9499;52.472;13.448;2022-11-12T15:19:13;13.30;1.00
18741;DHT22;9499;52.472;13.448;2022-11-12T15:21:44;13.20;1.00
18741;DHT22;9499;52.472;13.448;2022-11-12T15:24:18;13.20;1.00
18741;DHT22;9499;52.472;13.448;2022-11-12T15:26:47;13.10;1.00
18741;DHT22;9499;52.472;13.448;2022-11-12T15:29:23;13.00;1.00
18741;DHT22;9499;52.472;13.448;2022-11-12T15:31:51;13.00;1.00
18741;DHT22;9499;52.472;13.448;2022-11-12T15:34:27;12.90;1.00
18741;DHT22;9499;52.472;13.448;2022-11-12T15:36:54;12.80;1.00
18741;DHT22;9499;52.472;13.448;2022-11-12T15:39:21;12.70;1.00
18741;DHT22;9499;52.472;13.448;2022-11-12T15:41:57;12.60;1.00
18741;DHT22;9499;52.472;13.448;2022-11-12T15:44:24;12.50;1.00
18741;DHT22;9499;52.472;13.448;2022-11-12T15:46:52;12.40;1.00
18741;DHT22;9499;52.472;13.448;2022-11-12T15:49:18;12.30;1.00
18741;DHT22;9499;52.472;13.448;2022-11-12T15:51:45;12.30;1.00
18741;DHT22;9499;52.472;13.448;2022-11-12T15:54:12;12.20;1.00
18741;DHT22;9499;52.472;13.448;2022-11-12T15:56:39;12.10;1.00
18741;DHT22;9499;52.472;13.448;2022-11-12T15:59:08;12.10;1.00
18741;DHT22;9499;52.472;13.448;2022-11-12T16:01:35;12.00;1.00
18741;DHT22;9499;52.472;13.448;2022-11-12T16:04:01;11.90;1.00
18741;DHT22;9499;52.472;13.448;2022-11-12T16:06:28;11.90;1.00
18741;DHT22;9499;52.472;13.448;2022-11-12T16:08:54;11.80;1.00
18741;DHT22;9499;52.472;13.448;2022-11-12T16:11:21;11.70;1.00
18741;DHT22;9499;52.472;13.448;2022-11-12T16:14:05;11.70;1.00